sensor_id;sensor_type;location;lat;lon;timestamp;temperature;humidity
3876;DHT22;1953;51.222;6.624;2022-07-21T00:03:38;22.00;1.00
3876;DHT22;1953;51.222;6.624;2022-07-21T00:08:21;21.90;1.00
3876;DHT22;1953;51.222;6.624;2022-07-21T00:13:03;21.90;1.00
3876;DHT22;1953;51.222;6.624;2022-07-21T00:17:46;21.80;1.00
3876;DHT22;1953;51.222;6.624;2022-07-21T00:22:30;21.80;1.00
3876;DHT22;1953;51.222;6.624;2022-07-21T00:27:13;21.90;1.00
3876;DHT22;1953;51.222;6.624;2022-07-21T00:31:56;21.90;1.00
3876;DHT22;1953;51.222;6.624;2022-07-21T00:36:38;21.90;1.00
3876;DHT22;1953;51.222;6.624;2022-07-21T00:41:22;22.00;1.00
3876;DHT22;1953;51.222;6.624;2022-07-21T00:46:05;22.00;1.00
3876;DHT22;1953;51.222;6.624;2022-07-21T00:50:48;22.00;1.00
3876;DHT22;1953;51.222;6.624;2022-07-21T00:55:30;22.00;1.00
3876;DHT22;1953;51.222;6.624;2022-07-21T01:00:21;22.00;1.00
3876;DHT22;1953;51.222;6.624;2022-07-21T01:05:04;21.90;1.00
3876;DHT22;1953;51.222;6.624;2022-07-21T01:09:47;21.90;1.00
3876;DHT22;1953;51.222;6.624;2022-07-21T01:14:30;21.90;1.00
3876;DHT22;1953;51.222;6.624;2022-07-21T01:19:14;21.80;1.00
3876;DHT22;1953;51.222;6.624;2022-07-21T01:23:58;21.70;1.00
3876;DHT22;1953;51.222;6.624;2022-07-21T01:28:41;21.70;1.00
3876;DHT22;1953;51.222;6.624;2022-07-21T01:33:23;21.70;1.00
3876;DHT22;1953;51.222;6.624;2022-07-21T01:38:06;21.70;1.00
3876;DHT22;1953;51.222;6.624;2022-07-21T01:43:09;21.60;1.00
3876;DHT22;1953;51.222;6.624;2022-07-21T01:47:52;21.60;1.00
3876;DHT22;1953;51.222;6.624;2022-07-21T01:52:34;21.50;1.00
3876;DHT22;1953;51.222;6.624;2022-07-21T01:57:17;21.50;1.00
3876;DHT22;1953;51.222;6.624;2022-07-21T02:02:01;21.40;1.00
3876;DHT22;1953;51.222;6.624;2022-07-21T02:06:43;21.40;1.00
3876;DHT22;1953;51.222;6.624;2022-07-21T02:11:26;21.40;1.00
3876;DHT22;1953;51.222;6.624;2022-07-21T02:16:09;21.30;1.00
3876;DHT22;1953;51.222;6.624;2022-07-21T02:20:53;21.30;1.00
3876;DHT22;1953;51.222;6.624;2022-07-21T02:25:36;21.20;1.00
3876;DHT22;1953;51.222;6.624;2022-07-21T02:30:19;21.20;1.00
3876;DHT22;1953;51.222;6.624;2022-07-21T02:35:02;21.20;1.00
3876;DHT22;1953;51.222;6.624;2022-07-21T02:39:46;21.10;1.00
3876;DHT22;1953;51.222;6.624;2022-07-21T02:44:28;21.00;1.00
3876;DHT22;1953;51.222;6.624;2022-07-21T02:49:12;21.00;1.00
3876;DHT22;1953;51.222;6.624;2022-07-21T02:53:54;21.00;1.00
3876;DHT22;1953;51.222;6.624;2022-07-21T02:58:38;20.90;1.00
3876;DHT22;1953;51.222;6.624;2022-07-21T03:03:22;21.00;1.00
3876;DHT22;1953;51.222;6.624;2022-07-21T03:08:06;20.90;1.00
3876;DHT22;1953;51.222;6.624;2022-07-21T03:12:49;20.90;1.00
3876;DHT22;1953;51.222;6.624;2022-07-21T03:17:33;21.00;1.00
3876;DHT22;1953;51.222;6.624;2022-07-21T03:22:15;20.90;1.00
3876;DHT22;1953;51.222;6.624;2022-07-21T03:26:58;20.90;1.00
3876;DHT22;1953;51.222;6.624;2022-07-21T03:31:40;20.90;1.00
3876;DHT22;1953;51.222;6.624;2022-07-21T03:36:24;20.90;1.00
3876;DHT22;1953;51.222;6.624;2022-07-21T03:41:07;20.90;1.00
3876;DHT22;1953;51.222;6.624;2022-07-21T03:45:49;20.90;1.00
3876;DHT22;1953;51.222;6.624;2022-07-21T03:50:32;20.90;1.00
3876;DHT22;1953;51.222;6.624;2022-07-21T03:55:16;20.90;1.00
3876;DHT22;1953;51.222;6.624;2022-07-21T03:59:59;20.90;1.00
3876;DHT22;1953;51.222;6.624;2022-07-21T04:04:42;20.90;1.00
3876;DHT22;1953;51.222;6.624;2022-07-21T04:09:24;20.80;1.00
3876;DHT22;1953;51.222;6.624;2022-07-21T04:14:08;20.80;1.00
3876;DHT22;1953;51.222;6.624;2022-07-21T04:18:50;20.80;1.00
3876;DHT22;1953;51.222;6.624;2022-07-21T04:23:33;20.70;1.00
3876;DHT22;1953;51.222;6.624;2022-07-21T04:28:15;20.70;1.00
3876;DHT22;1953;51.222;6.624;2022-07-21T04:32:59;20.80;1.00
3876;DHT22;1953;51.222;6.624;2022-07-21T04:37:42;20.70;1.00
3876;DHT22;1953;51.222;6.624;2022-07-21T04:42:25;20.70;1.00
3876;DHT22;1953;51.222;6.624;2022-07-21T04:47:07;20.70;1.00
3876;DHT22;1953;51.222;6.624;2022-07-21T04:51:51;20.80;1.00
3876;DHT22;1953;51.222;6.624;2022-07-21T04:56:33;20.80;1.00
3876;DHT22;1953;51.222;6.624;2022-07-21T05:01:16;20.80;1.00
3876;DHT22;1953;51.222;6.624;2022-07-21T05:05:59;20.90;1.00
3876;DHT22;1953;51.222;6.624;2022-07-21T05:10:43;20.90;1.00
3876;DHT22;1953;51.222;6.624;2022-07-21T05:15:26;20.90;1.00
3876;DHT22;1953;51.222;6.624;2022-07-21T05:20:09;21.00;1.00
3876;DHT22;1953;51.222;6.624;2022-07-21T05:24:52;21.00;1.00
3876;DHT22;1953;51.222;6.624;2022-07-21T05:29:36;21.00;1.00
3876;DHT22;1953;51.222;6.624;2022-07-21T05:34:18;21.00;1.00
3876;DHT22;1953;51.222;6.624;2022-07-21T05:39:00;21.10;1.00
3876;DHT22;1953;51.222;6.624;2022-07-21T05:43:43;21.10;1.00
3876;DHT22;1953;51.222;6.624;2022-07-21T05:48:27;21.00;1.00
3876;DHT22;1953;51.222;6.624;2022-07-21T05:53:09;21.10;1.00
3876;DHT22;1953;51.222;6.624;2022-07-21T05:57:52;21.10;1.00
3876;DHT22;1953;51.222;6.624;2022-07-21T06:02:34;21.10;1.00
3876;DHT22;1953;51.222;6.624;2022-07-21T06:07:18;21.10;1.00
3876;DHT22;1953;51.222;6.624;2022-07-21T06:12:01;21.10;1.00
3876;DHT22;1953;51.222;6.624;2022-07-21T06:16:44;21.10;1.00
3876;DHT22;1953;51.222;6.624;2022-07-21T06:21:26;21.10;1.00
3876;DHT22;1953;51.222;6.624;2022-07-21T06:26:10;21.30;1.00
3876;DHT22;1953;51.222;6.624;2022-07-21T06:30:52;21.40;1.00
3876;DHT22;1953;51.222;6.624;2022-07-21T06:35:38;21.40;1.00
3876;DHT22;1953;51.222;6.624;2022-07-21T06:40:20;21.50;1.00
3876;DHT22;1953;51.222;6.624;2022-07-21T06:45:05;21.50;1.00
3876;DHT22;1953;51.222;6.624;2022-07-21T06:49:48;21.60;1.00
3876;DHT22;1953;51.222;6.624;2022-07-21T06:54:30;21.70;1.00
3876;DHT22;1953;51.222;6.624;2022-07-21T06:59:12;21.70;1.00
3876;DHT22;1953;51.222;6.624;2022-07-21T07:03:56;21.80;1.00
3876;DHT22;1953;51.222;6.624;2022-07-21T07:08:39;21.90;1.00
3876;DHT22;1953;51.222;6.624;2022-07-21T07:13:21;22.10;1.00
3876;DHT22;1953;51.222;6.624;2022-07-21T07:18:04;22.20;1.00
3876;DHT22;1953;51.222;6.624;2022-07-21T07:22:48;22.40;1.00
3876;DHT22;1953;51.222;6.624;2022-07-21T07:27:31;22.50;1.00
3876;DHT22;1953;51.222;6.624;2022-07-21T07:32:13;22.50;1.00
3876;DHT22;1953;51.222;6.624;2022-07-21T07:36:56;22.40;1.00
3876;DHT22;1953;51.222;6.624;2022-07-21T07:41:40;22.40;1.00
3876;DHT22;1953;51.222;6.624;2022-07-21T07:46:22;22.60;1.00
3876;DHT22;1953;51.222;6.624;2022-07-21T07:51:05;22.70;1.00
3876;DHT22;1953;51.222;6.624;2022-07-21T07:55:47;22.90;1.00
3876;DHT22;1953;51.222;6.624;2022-07-21T08:00:31;23.10;1.00
3876;DHT22;1953;51.222;6.624;2022-07-21T08:05:13;23.30;1.00
3876;DHT22;1953;51.222;6.624;2022-07-21T08:09:56;23.40;1.00
3876;DHT22;1953;51.222;6.624;2022-07-21T08:14:42;23.30;1.00
3876;DHT22;1953;51.222;6.624;2022-07-21T08:19:26;23.20;1.00
3876;DHT22;1953;51.222;6.624;2022-07-21T08:24:09;23.00;1.00
3876;DHT22;1953;51.222;6.624;2022-07-21T08:28:52;23.10;1.00
3876;DHT22;1953;51.222;6.624;2022-07-21T08:33:34;23.20;1.00
3876;DHT22;1953;51.222;6.624;2022-07-21T08:38:18;23.60;1.00
3876;DHT22;1953;51.222;6.624;2022-07-21T08:43:01;23.90;1.00
3876;DHT22;1953;51.222;6.624;2022-07-21T08:47:44;24.10;1.00
3876;DHT22;1953;51.222;6.624;2022-07-21T08:52:27;24.00;1.00
3876;DHT22;1953;51.222;6.624;2022-07-21T08:57:11;24.00;1.00
3876;DHT22;1953;51.222;6.624;2022-07-21T09:01:53;24.10;1.00
3876;DHT22;1953;51.222;6.624;2022-07-21T09:06:49;24.00;1.00
3876;DHT22;1953;51.222;6.624;2022-07-21T09:11:31;24.10;1.00
3876;DHT22;1953;51.222;6.624;2022-07-21T09:16:32;24.20;1.00
3876;DHT22;1953;51.222;6.624;2022-07-21T09:21:16;24.30;1.00
3876;DHT22;1953;51.222;6.624;2022-07-21T09:25:59;24.50;1.00
3876;DHT22;1953;51.222;6.624;2022-07-21T09:30:56;24.30;1.00
3876;DHT22;1953;51.222;6.624;2022-07-21T09:35:52;24.10;1.00
3876;DHT22;1953;51.222;6.624;2022-07-21T09:40:46;24.00;1.00
3876;DHT22;1953;51.222;6.624;2022-07-21T09:45:36;24.00;1.00
3876;DHT22;1953;51.222;6.624;2022-07-21T09:50:19;24.00;1.00
3876;DHT22;1953;51.222;6.624;2022-07-21T09:55:05;23.70;1.00
3876;DHT22;1953;51.222;6.624;2022-07-21T09:59:49;23.50;1.00
3876;DHT22;1953;51.222;6.624;2022-07-21T10:04:34;23.40;1.00
3876;DHT22;1953;51.222;6.624;2022-07-21T10:09:17;23.40;1.00
3876;DHT22;1953;51.222;6.624;2022-07-21T10:14:02;22.90;1.00
3876;DHT22;1953;51.222;6.624;2022-07-21T10:18:58;23.20;1.00
3876;DHT22;1953;51.222;6.624;2022-07-21T10:23:43;22.90;1.00
3876;DHT22;1953;51.222;6.624;2022-07-21T10:28:25;22.90;1.00
3876;DHT22;1953;51.222;6.624;2022-07-21T10:33:10;23.00;1.00
3876;DHT22;1953;51.222;6.624;2022-07-21T10:37:53;23.00;1.00
3876;DHT22;1953;51.222;6.624;2022-07-21T10:42:36;22.90;1.00
3876;DHT22;1953;51.222;6.624;2022-07-21T10:47:20;22.70;1.00
3876;DHT22;1953;51.222;6.624;2022-07-21T10:57:30;22.20;1.00
3876;DHT22;1953;51.222;6.624;2022-07-21T11:02:25;22.10;1.00
3876;DHT22;1953;51.222;6.624;2022-07-21T11:07:09;21.90;1.00
3876;DHT22;1953;51.222;6.624;2022-07-21T11:11:59;21.70;1.00
3876;DHT22;1953;51.222;6.624;2022-07-21T11:17:07;21.70;1.00
3876;DHT22;1953;51.222;6.624;2022-07-21T11:21:50;21.60;1.00
3876;DHT22;1953;51.222;6.624;2022-07-21T11:26:33;21.60;1.00
3876;DHT22;1953;51.222;6.624;2022-07-21T11:31:18;21.50;1.00
3876;DHT22;1953;51.222;6.624;2022-07-21T11:36:03;21.40;1.00
3876;DHT22;1953;51.222;6.624;2022-07-21T11:40:45;21.30;1.00
3876;DHT22;1953;51.222;6.624;2022-07-21T11:45:29;21.30;1.00
3876;DHT22;1953;51.222;6.624;2022-07-21T11:50:12;21.40;1.00
3876;DHT22;1953;51.222;6.624;2022-07-21T11:54:55;21.30;1.00
3876;DHT22;1953;51.222;6.624;2022-07-21T12:04:43;21.30;1.00
3876;DHT22;1953;51.222;6.624;2022-07-21T12:09:27;21.20;1.00
3876;DHT22;1953;51.222;6.624;2022-07-21T12:14:10;21.00;1.00
3876;DHT22;1953;51.222;6.624;2022-07-21T12:19:10;21.00;1.00
3876;DHT22;1953;51.222;6.624;2022-07-21T12:23:54;20.90;1.00
3876;DHT22;1953;51.222;6.624;2022-07-21T12:28:44;20.90;1.00
3876;DHT22;1953;51.222;6.624;2022-07-21T12:33:28;21.10;1.00
3876;DHT22;1953;51.222;6.624;2022-07-21T12:38:13;21.00;1.00
3876;DHT22;1953;51.222;6.624;2022-07-21T12:43:13;21.00;1.00
3876;DHT22;1953;51.222;6.624;2022-07-21T12:48:06;19.60;1.00
3876;DHT22;1953;51.222;6.624;2022-07-21T12:52:48;20.80;1.00
3876;DHT22;1953;51.222;6.624;2022-07-21T12:57:32;20.90;1.00
3876;DHT22;1953;51.222;6.624;2022-07-21T13:02:16;21.00;1.00
3876;DHT22;1953;51.222;6.624;2022-07-21T13:06:59;20.90;1.00
3876;DHT22;1953;51.222;6.624;2022-07-21T13:11:41;20.90;1.00
3876;DHT22;1953;51.222;6.624;2022-07-21T13:16:24;20.80;1.00
3876;DHT22;1953;51.222;6.624;2022-07-21T13:21:08;20.90;1.00
3876;DHT22;1953;51.222;6.624;2022-07-21T13:25:50;20.80;1.00
3876;DHT22;1953;51.222;6.624;2022-07-21T13:30:33;21.50;1.00
3876;DHT22;1953;51.222;6.624;2022-07-21T13:35:15;20.50;1.00
3876;DHT22;1953;51.222;6.624;2022-07-21T13:39:59;20.30;1.00
3876;DHT22;1953;51.222;6.624;2022-07-21T13:44:42;20.30;1.00
3876;DHT22;1953;51.222;6.624;2022-07-21T13:49:25;20.30;1.00
3876;DHT22;1953;51.222;6.624;2022-07-21T13:54:07;20.30;1.00
3876;DHT22;1953;51.222;6.624;2022-07-21T13:58:51;20.30;1.00
3876;DHT22;1953;51.222;6.624;2022-07-21T14:03:34;20.30;1.00
3876;DHT22;1953;51.222;6.624;2022-07-21T14:08:16;20.30;1.00
3876;DHT22;1953;51.222;6.624;2022-07-21T14:12:59;20.20;1.00
3876;DHT22;1953;51.222;6.624;2022-07-21T14:17:43;20.20;1.00
3876;DHT22;1953;51.222;6.624;2022-07-21T14:22:25;20.50;1.00
3876;DHT22;1953;51.222;6.624;2022-07-21T14:27:08;20.60;1.00
3876;DHT22;1953;51.222;6.624;2022-07-21T14:31:50;20.70;1.00
3876;DHT22;1953;51.222;6.624;2022-07-21T14:36:34;20.80;1.00
3876;DHT22;1953;51.222;6.624;2022-07-21T14:41:17;20.90;1.00
3876;DHT22;1953;51.222;6.624;2022-07-21T14:45:59;21.10;1.00
3876;DHT22;1953;51.222;6.624;2022-07-21T14:50:42;21.10;1.00
3876;DHT22;1953;51.222;6.624;2022-07-21T14:55:26;21.10;1.00
3876;DHT22;1953;51.222;6.624;2022-07-21T15:00:11;21.10;1.00
3876;DHT22;1953;51.222;6.624;2022-07-21T15:04:54;21.10;1.00
3876;DHT22;1953;51.222;6.624;2022-07-21T15:09:36;21.10;1.00
3876;DHT22;1953;51.222;6.624;2022-07-21T15:14:20;21.20;1.00
3876;DHT22;1953;51.222;6.624;2022-07-21T15:19:03;21.30;1.00
3876;DHT22;1953;51.222;6.624;2022-07-21T15:23:45;21.20;1.00
3876;DHT22;1953;51.222;6.624;2022-07-21T15:28:28;21.00;1.00
3876;DHT22;1953;51.222;6.624;2022-07-21T15:33:12;20.90;1.00
3876;DHT22;1953;51.222;6.624;2022-07-21T15:37:54;20.80;1.00
3876;DHT22;1953;51.222;6.624;2022-07-21T15:42:39;20.70;1.00
3876;DHT22;1953;51.222;6.624;2022-07-21T15:47:23;20.70;1.00
3876;DHT22;1953;51.222;6.624;2022-07-21T15:52:07;20.70;1.00
3876;DHT22;1953;51.222;6.624;2022-07-21T15:56:49;20.80;1.00
3876;DHT22;1953;51.222;6.624;2022-07-21T16:01:32;20.80;1.00
3876;DHT22;1953;51.222;6.624;2022-07-21T16:06:15;20.70;1.00
3876;DHT22;1953;51.222;6.624;2022-07-21T16:10:59;20.60;1.00
3876;DHT22;1953;51.222;6.624;2022-07-21T16:15:42;20.40;1.00
3876;DHT22;1953;51.222;6.624;2022-07-21T16:20:24;20.40;1.00
3876;DHT22;1953;51.222;6.624;2022-07-21T16:25:07;20.50;1.00
3876;DHT22;1953;51.222;6.624;2022-07-21T16:29:51;20.50;1.00
3876;DHT22;1953;51.222;6.624;2022-07-21T16:34:34;20.30;1.00
3876;DHT22;1953;51.222;6.624;2022-07-21T16:39:16;20.30;1.00
3876;DHT22;1953;51.222;6.624;2022-07-21T16:43:59;20.20;1.00
3876;DHT22;1953;51.222;6.624;2022-07-21T16:48:43;20.10;1.00
3876;DHT22;1953;51.222;6.624;2022-07-21T16:53:30;20.10;1.00
3876;DHT22;1953;51.222;6.624;2022-07-21T16:58:12;20.10;1.00
3876;DHT22;1953;51.222;6.624;2022-07-21T17:02:55;20.10;1.00
3876;DHT22;1953;51.222;6.624;2022-07-21T17:07:39;20.10;1.00
3876;DHT22;1953;51.222;6.624;2022-07-21T17:12:21;20.00;1.00
3876;DHT22;1953;51.222;6.624;2022-07-21T17:17:04;19.90;1.00
3876;DHT22;1953;51.222;6.624;2022-07-21T17:21:46;19.90;1.00
3876;DHT22;1953;51.222;6.624;2022-07-21T17:26:31;19.80;1.00
3876;DHT22;1953;51.222;6.624;2022-07-21T17:31:15;19.70;1.00
3876;DHT22;1953;51.222;6.624;2022-07-21T17:35:57;19.80;1.00
3876;DHT22;1953;51.222;6.624;2022-07-21T17:40:40;19.80;1.00
3876;DHT22;1953;51.222;6.624;2022-07-21T17:45:24;19.80;1.00
3876;DHT22;1953;51.222;6.624;2022-07-21T17:50:07;19.80;1.00
3876;DHT22;1953;51.222;6.624;2022-07-21T17:54:50;19.80;1.00
3876;DHT22;1953;51.222;6.624;2022-07-21T17:59:32;19.80;1.00
3876;DHT22;1953;51.222;6.624;2022-07-21T18:04:16;19.80;1.00
3876;DHT22;1953;51.222;6.624;2022-07-21T18:08:59;19.80;1.00
3876;DHT22;1953;51.222;6.624;2022-07-21T18:13:41;19.80;1.00
3876;DHT22;1953;51.222;6.624;2022-07-21T18:18:24;19.80;1.00
3876;DHT22;1953;51.222;6.624;2022-07-21T18:23:08;19.80;1.00
3876;DHT22;1953;51.222;6.624;2022-07-21T18:27:52;19.70;1.00
3876;DHT22;1953;51.222;6.624;2022-07-21T18:32:35;19.70;1.00
3876;DHT22;1953;51.222;6.624;2022-07-21T18:37:17;19.70;1.00
3876;DHT22;1953;51.222;6.624;2022-07-21T18:42:01;19.70;1.00
3876;DHT22;1953;51.222;6.624;2022-07-21T18:46:44;19.60;1.00
3876;DHT22;1953;51.222;6.624;2022-07-21T18:51:26;19.50;1.00
3876;DHT22;1953;51.222;6.624;2022-07-21T18:56:09;19.50;1.00
3876;DHT22;1953;51.222;6.624;2022-07-21T19:00:53;19.40;1.00
3876;DHT22;1953;51.222;6.624;2022-07-21T19:05:36;19.30;1.00
3876;DHT22;1953;51.222;6.624;2022-07-21T19:10:18;19.40;1.00
3876;DHT22;1953;51.222;6.624;2022-07-21T19:15:05;19.40;1.00
3876;DHT22;1953;51.222;6.624;2022-07-21T19:19:49;19.40;1.00
3876;DHT22;1953;51.222;6.624;2022-07-21T19:24:32;19.30;1.00
3876;DHT22;1953;51.222;6.624;2022-07-21T19:29:14;19.30;1.00
3876;DHT22;1953;51.222;6.624;2022-07-21T19:33:58;19.30;1.00
3876;DHT22;1953;51.222;6.624;2022-07-21T19:38:42;19.30;1.00
3876;DHT22;1953;51.222;6.624;2022-07-21T19:43:24;19.30;1.00
3876;DHT22;1953;51.222;6.624;2022-07-21T19:48:07;19.30;1.00
3876;DHT22;1953;51.222;6.624;2022-07-21T19:52:49;19.30;1.00
3876;DHT22;1953;51.222;6.624;2022-07-21T19:57:33;19.30;1.00
3876;DHT22;1953;51.222;6.624;2022-07-21T20:02:16;19.30;1.00
3876;DHT22;1953;51.222;6.624;2022-07-21T20:06:58;19.20;1.00
3876;DHT22;1953;51.222;6.624;2022-07-21T20:11:41;19.20;1.00
3876;DHT22;1953;51.222;6.624;2022-07-21T20:16:25;19.20;1.00
3876;DHT22;1953;51.222;6.624;2022-07-21T20:21:08;19.20;1.00
3876;DHT22;1953;51.222;6.624;2022-07-21T20:25:51;19.20;1.00
3876;DHT22;1953;51.222;6.624;2022-07-21T20:30:34;19.20;1.00
3876;DHT22;1953;51.222;6.624;2022-07-21T20:35:19;19.20;1.00
3876;DHT22;1953;51.222;6.624;2022-07-21T20:40:03;19.10;1.00
3876;DHT22;1953;51.222;6.624;2022-07-21T20:44:46;20.10;1.00
3876;DHT22;1953;51.222;6.624;2022-07-21T20:49:29;18.90;1.00
3876;DHT22;1953;51.222;6.624;2022-07-21T20:54:12;18.90;1.00
3876;DHT22;1953;51.222;6.624;2022-07-21T20:58:55;18.90;1.00
3876;DHT22;1953;51.222;6.624;2022-07-21T21:03:37;18.80;1.00
3876;DHT22;1953;51.222;6.624;2022-07-21T21:08:20;18.80;1.00
3876;DHT22;1953;51.222;6.624;2022-07-21T21:13:04;18.70;1.00
3876;DHT22;1953;51.222;6.624;2022-07-21T21:17:46;18.80;1.00
3876;DHT22;1953;51.222;6.624;2022-07-21T21:22:29;18.70;1.00
3876;DHT22;1953;51.222;6.624;2022-07-21T21:27:12;18.70;1.00
3876;DHT22;1953;51.222;6.624;2022-07-21T21:31:56;18.60;1.00
3876;DHT22;1953;51.222;6.624;2022-07-21T21:36:39;18.60;1.00
3876;DHT22;1953;51.222;6.624;2022-07-21T21:41:21;18.70;1.00
3876;DHT22;1953;51.222;6.624;2022-07-21T21:46:04;18.70;1.00
3876;DHT22;1953;51.222;6.624;2022-07-21T21:50:50;18.70;1.00
3876;DHT22;1953;51.222;6.624;2022-07-21T21:55:33;18.70;1.00
3876;DHT22;1953;51.222;6.624;2022-07-21T22:00:16;18.70;1.00
3876;DHT22;1953;51.222;6.624;2022-07-21T22:04:59;18.70;1.00
3876;DHT22;1953;51.222;6.624;2022-07-21T22:09:43;18.70;1.00
3876;DHT22;1953;51.222;6.624;2022-07-21T22:14:25;18.80;1.00
3876;DHT22;1953;51.222;6.624;2022-07-21T22:19:08;18.70;1.00
3876;DHT22;1953;51.222;6.624;2022-07-21T22:23:50;18.70;1.00
3876;DHT22;1953;51.222;6.624;2022-07-21T22:28:34;18.80;1.00
3876;DHT22;1953;51.222;6.624;2022-07-21T22:33:17;18.70;1.00
3876;DHT22;1953;51.222;6.624;2022-07-21T22:37:59;18.80;1.00
3876;DHT22;1953;51.222;6.624;2022-07-21T22:42:41;18.70;1.00
3876;DHT22;1953;51.222;6.624;2022-07-21T22:47:25;18.70;1.00
3876;DHT22;1953;51.222;6.624;2022-07-21T22:52:08;18.60;1.00
3876;DHT22;1953;51.222;6.624;2022-07-21T22:56:50;18.60;1.00
3876;DHT22;1953;51.222;6.624;2022-07-21T23:01:33;18.60;1.00
3876;DHT22;1953;51.222;6.624;2022-07-21T23:06:17;18.60;1.00
3876;DHT22;1953;51.222;6.624;2022-07-21T23:10:59;18.60;1.00
3876;DHT22;1953;51.222;6.624;2022-07-21T23:15:42;18.50;1.00
3876;DHT22;1953;51.222;6.624;2022-07-21T23:20:24;18.70;1.00
3876;DHT22;1953;51.222;6.624;2022-07-21T23:25:09;18.60;1.00
3876;DHT22;1953;51.222;6.624;2022-07-21T23:29:52;18.60;1.00
3876;DHT22;1953;51.222;6.624;2022-07-21T23:34:34;18.60;1.00
3876;DHT22;1953;51.222;6.624;2022-07-21T23:39:17;18.50;1.00
3876;DHT22;1953;51.222;6.624;2022-07-21T23:44:01;18.40;1.00
3876;DHT22;1953;51.222;6.624;2022-07-21T23:48:43;18.40;1.00
3876;DHT22;1953;51.222;6.624;2022-07-21T23:53:26;18.30;1.00
3876;DHT22;1953;51.222;6.624;2022-07-21T23:58:08;18.20;1.00
